sensor_id;sensor_type;location;lat;lon;timestamp;P1;durP1;ratioP1;P2;durP2;ratioP2
12623;SDS011;6377;42.836;23.998;2023-03-04T00:00:30;39.20;;;25.30;;
12623;SDS011;6377;42.836;23.998;2023-03-04T00:02:58;31.57;;;17.53;;
12623;SDS011;6377;42.836;23.998;2023-03-04T00:05:25;41.40;;;24.40;;
12623;SDS011;6377;42.836;23.998;2023-03-04T00:07:52;57.37;;;31.77;;
12623;SDS011;6377;42.836;23.998;2023-03-04T00:10:19;50.17;;;28.53;;
12623;SDS011;6377;42.836;23.998;2023-03-04T00:12:46;42.53;;;25.70;;
12623;SDS011;6377;42.836;23.998;2023-03-04T00:15:13;39.57;;;24.83;;
12623;SDS011;6377;42.836;23.998;2023-03-04T00:17:42;39.27;;;22.33;;
12623;SDS011;6377;42.836;23.998;2023-03-04T00:20:11;39.87;;;22.43;;
12623;SDS011;6377;42.836;23.998;2023-03-04T00:22:39;45.70;;;26.13;;
12623;SDS011;6377;42.836;23.998;2023-03-04T00:25:06;73.37;;;40.83;;
12623;SDS011;6377;42.836;23.998;2023-03-04T00:27:33;59.97;;;34.10;;
12623;SDS011;6377;42.836;23.998;2023-03-04T00:30:00;52.40;;;31.93;;
12623;SDS011;6377;42.836;23.998;2023-03-04T00:32:28;44.00;;;25.60;;
12623;SDS011;6377;42.836;23.998;2023-03-04T00:34:56;38.30;;;23.37;;
12623;SDS011;6377;42.836;23.998;2023-03-04T00:37:23;44.63;;;28.47;;
12623;SDS011;6377;42.836;23.998;2023-03-04T00:39:50;59.73;;;36.67;;
12623;SDS011;6377;42.836;23.998;2023-03-04T00:42:18;56.37;;;33.13;;
12623;SDS011;6377;42.836;23.998;2023-03-04T00:44:45;60.53;;;35.67;;
12623;SDS011;6377;42.836;23.998;2023-03-04T00:47:13;64.67;;;39.17;;
12623;SDS011;6377;42.836;23.998;2023-03-04T00:49:40;60.37;;;36.50;;
12623;SDS011;6377;42.836;23.998;2023-03-04T00:52:09;51.80;;;29.40;;
12623;SDS011;6377;42.836;23.998;2023-03-04T00:54:36;46.03;;;26.40;;
12623;SDS011;6377;42.836;23.998;2023-03-04T00:57:03;55.03;;;28.43;;
12623;SDS011;6377;42.836;23.998;2023-03-04T00:59:31;59.47;;;30.20;;
12623;SDS011;6377;42.836;23.998;2023-03-04T01:01:58;58.10;;;32.70;;
12623;SDS011;6377;42.836;23.998;2023-03-04T01:04:25;58.37;;;31.97;;
12623;SDS011;6377;42.836;23.998;2023-03-04T01:06:52;61.17;;;33.03;;
12623;SDS011;6377;42.836;23.998;2023-03-04T01:09:21;52.97;;;28.80;;
12623;SDS011;6377;42.836;23.998;2023-03-04T01:11:48;47.00;;;26.83;;
12623;SDS011;6377;42.836;23.998;2023-03-04T01:14:15;45.83;;;27.03;;
12623;SDS011;6377;42.836;23.998;2023-03-04T01:16:42;45.63;;;26.27;;
12623;SDS011;6377;42.836;23.998;2023-03-04T01:19:10;42.97;;;26.10;;
12623;SDS011;6377;42.836;23.998;2023-03-04T01:21:37;43.70;;;25.10;;
12623;SDS011;6377;42.836;23.998;2023-03-04T01:24:04;46.70;;;26.73;;
12623;SDS011;6377;42.836;23.998;2023-03-04T01:26:33;42.80;;;24.43;;
12623;SDS011;6377;42.836;23.998;2023-03-04T01:29:01;41.37;;;23.60;;
12623;SDS011;6377;42.836;23.998;2023-03-04T01:31:28;46.23;;;25.63;;
12623;SDS011;6377;42.836;23.998;2023-03-04T01:33:55;46.93;;;25.60;;
12623;SDS011;6377;42.836;23.998;2023-03-04T01:36:22;74.03;;;38.23;;
12623;SDS011;6377;42.836;23.998;2023-03-04T01:38:50;49.93;;;29.00;;
12623;SDS011;6377;42.836;23.998;2023-03-04T01:41:17;34.43;;;21.13;;
12623;SDS011;6377;42.836;23.998;2023-03-04T01:43:50;29.73;;;17.90;;
12623;SDS011;6377;42.836;23.998;2023-03-04T01:46:17;32.33;;;19.90;;
12623;SDS011;6377;42.836;23.998;2023-03-04T01:48:46;35.80;;;21.23;;
12623;SDS011;6377;42.836;23.998;2023-03-04T01:51:14;44.83;;;26.60;;
12623;SDS011;6377;42.836;23.998;2023-03-04T01:53:43;103.53;;;49.13;;
12623;SDS011;6377;42.836;23.998;2023-03-04T01:56:14;76.20;;;39.40;;
12623;SDS011;6377;42.836;23.998;2023-03-04T01:58:44;50.77;;;29.70;;
12623;SDS011;6377;42.836;23.998;2023-03-04T02:01:33;33.70;;;19.27;;
12623;SDS011;6377;42.836;23.998;2023-03-04T02:04:00;28.47;;;17.13;;
12623;SDS011;6377;42.836;23.998;2023-03-04T02:06:28;24.53;;;16.43;;
12623;SDS011;6377;42.836;23.998;2023-03-04T02:08:55;29.60;;;18.57;;
12623;SDS011;6377;42.836;23.998;2023-03-04T02:11:23;28.83;;;18.07;;
12623;SDS011;6377;42.836;23.998;2023-03-04T02:13:51;26.43;;;16.90;;
12623;SDS011;6377;42.836;23.998;2023-03-04T02:16:18;27.23;;;17.43;;
12623;SDS011;6377;42.836;23.998;2023-03-04T02:18:47;26.27;;;17.20;;
12623;SDS011;6377;42.836;23.998;2023-03-04T02:21:15;27.90;;;17.27;;
12623;SDS011;6377;42.836;23.998;2023-03-04T02:23:51;30.87;;;18.50;;
12623;SDS011;6377;42.836;23.998;2023-03-04T02:26:25;28.37;;;18.07;;
12623;SDS011;6377;42.836;23.998;2023-03-04T02:28:53;70.27;;;35.93;;
12623;SDS011;6377;42.836;23.998;2023-03-04T02:31:22;41.70;;;24.80;;
12623;SDS011;6377;42.836;23.998;2023-03-04T02:33:53;32.47;;;19.80;;
12623;SDS011;6377;42.836;23.998;2023-03-04T02:36:23;34.57;;;20.70;;
12623;SDS011;6377;42.836;23.998;2023-03-04T02:38:52;31.73;;;19.97;;
12623;SDS011;6377;42.836;23.998;2023-03-04T02:41:21;38.40;;;23.67;;
12623;SDS011;6377;42.836;23.998;2023-03-04T02:43:53;37.10;;;22.27;;
12623;SDS011;6377;42.836;23.998;2023-03-04T02:46:21;30.20;;;19.30;;
12623;SDS011;6377;42.836;23.998;2023-03-04T02:48:49;31.30;;;19.20;;
12623;SDS011;6377;42.836;23.998;2023-03-04T02:51:16;32.77;;;20.83;;
12623;SDS011;6377;42.836;23.998;2023-03-04T02:53:44;33.67;;;20.63;;
12623;SDS011;6377;42.836;23.998;2023-03-04T02:56:11;27.90;;;17.03;;
12623;SDS011;6377;42.836;23.998;2023-03-04T02:58:38;24.70;;;16.57;;
12623;SDS011;6377;42.836;23.998;2023-03-04T03:01:07;27.37;;;17.20;;
12623;SDS011;6377;42.836;23.998;2023-03-04T03:03:34;18.83;;;11.53;;
12623;SDS011;6377;42.836;23.998;2023-03-04T03:06:01;22.00;;;13.20;;
12623;SDS011;6377;42.836;23.998;2023-03-04T03:08:29;27.40;;;16.13;;
12623;SDS011;6377;42.836;23.998;2023-03-04T03:10:56;29.80;;;16.90;;
12623;SDS011;6377;42.836;23.998;2023-03-04T03:13:23;21.30;;;14.57;;
12623;SDS011;6377;42.836;23.998;2023-03-04T03:15:50;19.10;;;12.77;;
12623;SDS011;6377;42.836;23.998;2023-03-04T03:18:19;16.57;;;12.13;;
12623;SDS011;6377;42.836;23.998;2023-03-04T03:20:46;15.63;;;11.00;;
12623;SDS011;6377;42.836;23.998;2023-03-04T03:23:13;34.23;;;22.60;;
12623;SDS011;6377;42.836;23.998;2023-03-04T03:25:42;22.33;;;14.67;;
12623;SDS011;6377;42.836;23.998;2023-03-04T03:28:09;85.37;;;60.30;;
12623;SDS011;6377;42.836;23.998;2023-03-04T03:30:36;32.50;;;20.30;;
12623;SDS011;6377;42.836;23.998;2023-03-04T03:33:03;29.93;;;18.40;;
12623;SDS011;6377;42.836;23.998;2023-03-04T03:35:32;29.33;;;19.93;;
12623;SDS011;6377;42.836;23.998;2023-03-04T03:37:59;26.20;;;16.83;;
12623;SDS011;6377;42.836;23.998;2023-03-04T03:40:26;22.53;;;15.13;;
12623;SDS011;6377;42.836;23.998;2023-03-04T03:42:53;28.17;;;18.80;;
12623;SDS011;6377;42.836;23.998;2023-03-04T03:45:20;22.10;;;14.17;;
12623;SDS011;6377;42.836;23.998;2023-03-04T03:47:47;22.37;;;14.80;;
12623;SDS011;6377;42.836;23.998;2023-03-04T03:50:15;24.57;;;15.27;;
12623;SDS011;6377;42.836;23.998;2023-03-04T03:52:43;33.43;;;19.87;;
12623;SDS011;6377;42.836;23.998;2023-03-04T03:55:11;31.50;;;17.57;;
12623;SDS011;6377;42.836;23.998;2023-03-04T03:57:38;26.07;;;18.20;;
12623;SDS011;6377;42.836;23.998;2023-03-04T04:00:05;23.67;;;13.67;;
12623;SDS011;6377;42.836;23.998;2023-03-04T04:02:34;36.93;;;26.60;;
12623;SDS011;6377;42.836;23.998;2023-03-04T04:05:01;25.57;;;16.53;;
12623;SDS011;6377;42.836;23.998;2023-03-04T04:07:28;32.30;;;22.10;;
12623;SDS011;6377;42.836;23.998;2023-03-04T04:09:57;21.47;;;13.60;;
12623;SDS011;6377;42.836;23.998;2023-03-04T04:12:24;21.57;;;15.10;;
12623;SDS011;6377;42.836;23.998;2023-03-04T04:14:51;30.00;;;18.80;;
12623;SDS011;6377;42.836;23.998;2023-03-04T04:17:18;43.43;;;27.27;;
12623;SDS011;6377;42.836;23.998;2023-03-04T04:19:46;34.40;;;22.13;;
12623;SDS011;6377;42.836;23.998;2023-03-04T04:22:13;35.53;;;22.07;;
12623;SDS011;6377;42.836;23.998;2023-03-04T04:24:42;25.93;;;17.03;;
12623;SDS011;6377;42.836;23.998;2023-03-04T04:27:11;21.20;;;14.70;;
12623;SDS011;6377;42.836;23.998;2023-03-04T04:29:39;27.10;;;19.50;;
12623;SDS011;6377;42.836;23.998;2023-03-04T04:32:06;25.50;;;19.20;;
12623;SDS011;6377;42.836;23.998;2023-03-04T04:34:34;31.03;;;19.70;;
12623;SDS011;6377;42.836;23.998;2023-03-04T04:37:01;30.27;;;21.33;;
12623;SDS011;6377;42.836;23.998;2023-03-04T04:39:28;36.63;;;22.80;;
12623;SDS011;6377;42.836;23.998;2023-03-04T04:41:55;36.17;;;23.87;;
12623;SDS011;6377;42.836;23.998;2023-03-04T04:44:24;29.33;;;18.73;;
12623;SDS011;6377;42.836;23.998;2023-03-04T04:46:51;27.60;;;18.00;;
12623;SDS011;6377;42.836;23.998;2023-03-04T04:49:18;20.30;;;14.67;;
12623;SDS011;6377;42.836;23.998;2023-03-04T04:51:45;25.07;;;16.73;;
12623;SDS011;6377;42.836;23.998;2023-03-04T04:54:13;24.97;;;16.30;;
12623;SDS011;6377;42.836;23.998;2023-03-04T04:56:40;23.43;;;16.57;;
12623;SDS011;6377;42.836;23.998;2023-03-04T04:59:08;22.77;;;16.33;;
12623;SDS011;6377;42.836;23.998;2023-03-04T05:01:36;23.23;;;16.40;;
12623;SDS011;6377;42.836;23.998;2023-03-04T05:04:04;28.37;;;20.43;;
12623;SDS011;6377;42.836;23.998;2023-03-04T05:06:31;31.53;;;20.33;;
12623;SDS011;6377;42.836;23.998;2023-03-04T05:08:58;27.03;;;21.10;;
12623;SDS011;6377;42.836;23.998;2023-03-04T05:11:26;38.57;;;26.07;;
12623;SDS011;6377;42.836;23.998;2023-03-04T05:13:53;85.70;;;49.00;;
12623;SDS011;6377;42.836;23.998;2023-03-04T05:16:20;104.63;;;69.53;;
12623;SDS011;6377;42.836;23.998;2023-03-04T05:18:49;98.90;;;63.20;;
12623;SDS011;6377;42.836;23.998;2023-03-04T05:21:16;88.43;;;56.50;;
12623;SDS011;6377;42.836;23.998;2023-03-04T05:23:43;45.83;;;30.60;;
12623;SDS011;6377;42.836;23.998;2023-03-04T05:26:10;26.90;;;20.00;;
12623;SDS011;6377;42.836;23.998;2023-03-04T05:28:40;25.60;;;17.37;;
12623;SDS011;6377;42.836;23.998;2023-03-04T05:31:07;33.90;;;24.03;;
12623;SDS011;6377;42.836;23.998;2023-03-04T05:33:34;30.73;;;22.03;;
12623;SDS011;6377;42.836;23.998;2023-03-04T05:36:04;29.83;;;21.03;;
12623;SDS011;6377;42.836;23.998;2023-03-04T05:38:32;34.20;;;25.50;;
12623;SDS011;6377;42.836;23.998;2023-03-04T05:40:59;37.43;;;25.30;;
12623;SDS011;6377;42.836;23.998;2023-03-04T05:43:28;52.10;;;35.90;;
12623;SDS011;6377;42.836;23.998;2023-03-04T05:45:55;43.93;;;30.50;;
12623;SDS011;6377;42.836;23.998;2023-03-04T05:48:22;51.83;;;35.67;;
12623;SDS011;6377;42.836;23.998;2023-03-04T05:50:52;83.37;;;57.30;;
12623;SDS011;6377;42.836;23.998;2023-03-04T05:53:21;73.07;;;48.53;;
12623;SDS011;6377;42.836;23.998;2023-03-04T05:55:48;64.43;;;43.40;;
12623;SDS011;6377;42.836;23.998;2023-03-04T05:58:16;45.33;;;30.07;;
12623;SDS011;6377;42.836;23.998;2023-03-04T06:00:44;53.73;;;35.57;;
12623;SDS011;6377;42.836;23.998;2023-03-04T06:03:13;37.60;;;25.87;;
12623;SDS011;6377;42.836;23.998;2023-03-04T06:05:41;38.63;;;25.20;;
12623;SDS011;6377;42.836;23.998;2023-03-04T06:08:09;47.00;;;30.63;;
12623;SDS011;6377;42.836;23.998;2023-03-04T06:10:38;37.33;;;22.67;;
12623;SDS011;6377;42.836;23.998;2023-03-04T06:13:06;92.20;;;51.03;;
12623;SDS011;6377;42.836;23.998;2023-03-04T06:15:33;59.93;;;33.10;;
12623;SDS011;6377;42.836;23.998;2023-03-04T06:18:00;46.40;;;26.47;;
12623;SDS011;6377;42.836;23.998;2023-03-04T06:20:27;43.13;;;25.17;;
12623;SDS011;6377;42.836;23.998;2023-03-04T06:22:54;32.93;;;20.83;;
12623;SDS011;6377;42.836;23.998;2023-03-04T06:25:22;34.77;;;21.20;;
12623;SDS011;6377;42.836;23.998;2023-03-04T06:27:51;43.83;;;27.30;;
12623;SDS011;6377;42.836;23.998;2023-03-04T06:30:18;38.00;;;24.50;;
12623;SDS011;6377;42.836;23.998;2023-03-04T06:32:45;38.73;;;23.73;;
12623;SDS011;6377;42.836;23.998;2023-03-04T06:35:13;48.90;;;31.47;;
12623;SDS011;6377;42.836;23.998;2023-03-04T06:37:41;80.27;;;48.70;;
12623;SDS011;6377;42.836;23.998;2023-03-04T06:40:09;62.10;;;34.37;;
12623;SDS011;6377;42.836;23.998;2023-03-04T06:42:37;57.13;;;34.67;;
12623;SDS011;6377;42.836;23.998;2023-03-04T06:45:07;94.20;;;49.27;;
12623;SDS011;6377;42.836;23.998;2023-03-04T06:47:35;43.27;;;27.27;;
12623;SDS011;6377;42.836;23.998;2023-03-04T06:50:02;39.17;;;23.73;;
12623;SDS011;6377;42.836;23.998;2023-03-04T06:52:30;51.30;;;26.10;;
12623;SDS011;6377;42.836;23.998;2023-03-04T06:54:57;69.87;;;34.27;;
12623;SDS011;6377;42.836;23.998;2023-03-04T06:57:24;26.83;;;16.57;;
12623;SDS011;6377;42.836;23.998;2023-03-04T06:59:52;16.07;;;10.93;;
12623;SDS011;6377;42.836;23.998;2023-03-04T07:02:20;24.53;;;15.67;;
12623;SDS011;6377;42.836;23.998;2023-03-04T07:04:47;54.93;;;27.40;;
12623;SDS011;6377;42.836;23.998;2023-03-04T07:07:15;31.23;;;17.37;;
12623;SDS011;6377;42.836;23.998;2023-03-04T07:09:42;20.97;;;13.47;;
12623;SDS011;6377;42.836;23.998;2023-03-04T07:12:09;26.43;;;16.30;;
12623;SDS011;6377;42.836;23.998;2023-03-04T07:14:36;22.07;;;13.93;;
12623;SDS011;6377;42.836;23.998;2023-03-04T07:17:04;119.63;;;73.07;;
12623;SDS011;6377;42.836;23.998;2023-03-04T07:19:32;20.30;;;12.77;;
12623;SDS011;6377;42.836;23.998;2023-03-04T07:21:59;15.10;;;10.20;;
12623;SDS011;6377;42.836;23.998;2023-03-04T07:24:26;15.17;;;9.73;;
12623;SDS011;6377;42.836;23.998;2023-03-04T07:26:54;21.43;;;14.20;;
12623;SDS011;6377;42.836;23.998;2023-03-04T07:29:21;22.70;;;16.73;;
12623;SDS011;6377;42.836;23.998;2023-03-04T07:31:48;18.23;;;13.70;;
12623;SDS011;6377;42.836;23.998;2023-03-04T07:34:15;23.60;;;14.20;;
12623;SDS011;6377;42.836;23.998;2023-03-04T07:36:44;16.00;;;10.07;;
12623;SDS011;6377;42.836;23.998;2023-03-04T07:39:11;31.30;;;19.10;;
12623;SDS011;6377;42.836;23.998;2023-03-04T07:41:38;12.50;;;7.83;;
12623;SDS011;6377;42.836;23.998;2023-03-04T07:44:06;13.37;;;9.10;;
12623;SDS011;6377;42.836;23.998;2023-03-04T07:46:34;17.57;;;11.00;;
12623;SDS011;6377;42.836;23.998;2023-03-04T07:49:01;13.83;;;9.57;;
12623;SDS011;6377;42.836;23.998;2023-03-04T07:51:29;16.37;;;9.50;;
12623;SDS011;6377;42.836;23.998;2023-03-04T07:53:58;15.77;;;9.90;;
12623;SDS011;6377;42.836;23.998;2023-03-04T07:56:27;54.50;;;29.70;;
12623;SDS011;6377;42.836;23.998;2023-03-04T07:58:56;20.10;;;13.63;;
12623;SDS011;6377;42.836;23.998;2023-03-04T08:01:25;20.43;;;14.00;;
12623;SDS011;6377;42.836;23.998;2023-03-04T08:03:54;21.57;;;14.10;;
12623;SDS011;6377;42.836;23.998;2023-03-04T08:06:21;13.67;;;10.03;;
12623;SDS011;6377;42.836;23.998;2023-03-04T08:08:54;14.63;;;10.00;;
12623;SDS011;6377;42.836;23.998;2023-03-04T08:11:25;20.27;;;12.20;;
12623;SDS011;6377;42.836;23.998;2023-03-04T08:13:54;9.20;;;5.77;;
12623;SDS011;6377;42.836;23.998;2023-03-04T08:16:22;11.67;;;6.23;;
12623;SDS011;6377;42.836;23.998;2023-03-04T08:18:53;70.20;;;35.20;;
12623;SDS011;6377;42.836;23.998;2023-03-04T08:21:22;19.30;;;11.03;;
12623;SDS011;6377;42.836;23.998;2023-03-04T08:23:50;20.50;;;12.60;;
12623;SDS011;6377;42.836;23.998;2023-03-04T08:26:18;10.57;;;7.80;;
12623;SDS011;6377;42.836;23.998;2023-03-04T08:28:49;15.17;;;11.13;;
12623;SDS011;6377;42.836;23.998;2023-03-04T08:31:17;11.83;;;6.10;;
12623;SDS011;6377;42.836;23.998;2023-03-04T08:33:44;11.40;;;7.67;;
12623;SDS011;6377;42.836;23.998;2023-03-04T08:36:12;6.77;;;4.33;;
12623;SDS011;6377;42.836;23.998;2023-03-04T08:38:40;9.93;;;7.03;;
12623;SDS011;6377;42.836;23.998;2023-03-04T08:41:07;11.53;;;7.70;;
12623;SDS011;6377;42.836;23.998;2023-03-04T08:43:35;10.47;;;7.10;;
12623;SDS011;6377;42.836;23.998;2023-03-04T08:46:04;10.77;;;7.20;;
12623;SDS011;6377;42.836;23.998;2023-03-04T08:48:31;7.13;;;5.63;;
12623;SDS011;6377;42.836;23.998;2023-03-04T08:50:59;8.73;;;6.70;;
12623;SDS011;6377;42.836;23.998;2023-03-04T08:53:26;9.40;;;5.37;;
12623;SDS011;6377;42.836;23.998;2023-03-04T08:55:53;6.80;;;5.67;;
12623;SDS011;6377;42.836;23.998;2023-03-04T08:58:21;9.27;;;5.90;;
12623;SDS011;6377;42.836;23.998;2023-03-04T09:00:48;7.67;;;4.70;;
12623;SDS011;6377;42.836;23.998;2023-03-04T09:03:18;8.47;;;4.83;;
12623;SDS011;6377;42.836;23.998;2023-03-04T09:05:45;13.00;;;7.57;;
12623;SDS011;6377;42.836;23.998;2023-03-04T09:08:14;37.83;;;17.70;;
12623;SDS011;6377;42.836;23.998;2023-03-04T09:10:41;11.87;;;7.87;;
12623;SDS011;6377;42.836;23.998;2023-03-04T09:13:09;9.30;;;6.63;;
12623;SDS011;6377;42.836;23.998;2023-03-04T09:15:42;8.43;;;5.80;;
12623;SDS011;6377;42.836;23.998;2023-03-04T09:18:10;9.70;;;6.10;;
12623;SDS011;6377;42.836;23.998;2023-03-04T09:20:39;14.83;;;8.77;;
12623;SDS011;6377;42.836;23.998;2023-03-04T09:23:07;11.23;;;8.03;;
12623;SDS011;6377;42.836;23.998;2023-03-04T09:25:34;10.57;;;7.73;;
12623;SDS011;6377;42.836;23.998;2023-03-04T09:28:02;9.87;;;7.00;;
12623;SDS011;6377;42.836;23.998;2023-03-04T09:30:30;15.43;;;9.30;;
12623;SDS011;6377;42.836;23.998;2023-03-04T09:32:58;9.53;;;5.13;;
12623;SDS011;6377;42.836;23.998;2023-03-04T09:35:25;13.23;;;8.30;;
12623;SDS011;6377;42.836;23.998;2023-03-04T09:37:55;12.07;;;8.87;;
12623;SDS011;6377;42.836;23.998;2023-03-04T09:40:23;15.80;;;11.57;;
12623;SDS011;6377;42.836;23.998;2023-03-04T09:42:54;17.77;;;13.87;;
12623;SDS011;6377;42.836;23.998;2023-03-04T09:45:27;13.50;;;9.40;;
12623;SDS011;6377;42.836;23.998;2023-03-04T09:47:58;9.23;;;6.50;;
12623;SDS011;6377;42.836;23.998;2023-03-04T09:50:26;9.83;;;7.23;;
12623;SDS011;6377;42.836;23.998;2023-03-04T09:53:03;11.60;;;7.80;;
12623;SDS011;6377;42.836;23.998;2023-03-04T09:55:38;11.43;;;8.30;;
12623;SDS011;6377;42.836;23.998;2023-03-04T09:58:12;12.50;;;8.90;;
12623;SDS011;6377;42.836;23.998;2023-03-04T10:00:51;12.40;;;8.53;;
12623;SDS011;6377;42.836;23.998;2023-03-04T10:03:22;7.80;;;5.10;;
12623;SDS011;6377;42.836;23.998;2023-03-04T10:05:52;12.07;;;7.83;;
12623;SDS011;6377;42.836;23.998;2023-03-04T10:08:42;8.43;;;5.00;;
12623;SDS011;6377;42.836;23.998;2023-03-04T10:11:19;11.03;;;6.03;;
12623;SDS011;6377;42.836;23.998;2023-03-04T10:13:53;9.17;;;6.10;;
12623;SDS011;6377;42.836;23.998;2023-03-04T10:16:28;6.27;;;4.73;;
12623;SDS011;6377;42.836;23.998;2023-03-04T10:19:02;8.73;;;5.40;;
12623;SDS011;6377;42.836;23.998;2023-03-04T10:21:45;10.63;;;6.17;;
12623;SDS011;6377;42.836;23.998;2023-03-04T10:24:16;9.10;;;6.00;;
12623;SDS011;6377;42.836;23.998;2023-03-04T10:26:48;11.17;;;6.17;;
12623;SDS011;6377;42.836;23.998;2023-03-04T10:29:20;8.77;;;6.07;;
12623;SDS011;6377;42.836;23.998;2023-03-04T10:31:48;10.27;;;7.10;;
12623;SDS011;6377;42.836;23.998;2023-03-04T10:34:16;9.50;;;5.13;;
12623;SDS011;6377;42.836;23.998;2023-03-04T10:36:54;7.57;;;5.63;;
12623;SDS011;6377;42.836;23.998;2023-03-04T10:39:26;7.00;;;4.60;;
12623;SDS011;6377;42.836;23.998;2023-03-04T10:41:57;13.03;;;6.53;;
12623;SDS011;6377;42.836;23.998;2023-03-04T10:44:26;10.50;;;7.43;;
12623;SDS011;6377;42.836;23.998;2023-03-04T10:46:54;16.47;;;9.00;;
12623;SDS011;6377;42.836;23.998;2023-03-04T10:49:24;10.43;;;6.77;;
12623;SDS011;6377;42.836;23.998;2023-03-04T10:51:53;8.00;;;5.20;;
12623;SDS011;6377;42.836;23.998;2023-03-04T10:54:29;10.93;;;7.20;;
12623;SDS011;6377;42.836;23.998;2023-03-04T10:57:00;20.43;;;11.53;;
12623;SDS011;6377;42.836;23.998;2023-03-04T10:59:30;8.37;;;5.80;;
12623;SDS011;6377;42.836;23.998;2023-03-04T11:02:01;9.10;;;5.90;;
12623;SDS011;6377;42.836;23.998;2023-03-04T11:04:39;10.97;;;6.13;;
12623;SDS011;6377;42.836;23.998;2023-03-04T11:07:07;14.33;;;8.87;;
12623;SDS011;6377;42.836;23.998;2023-03-04T11:09:37;13.83;;;8.57;;
12623;SDS011;6377;42.836;23.998;2023-03-04T11:12:08;12.47;;;6.80;;
12623;SDS011;6377;42.836;23.998;2023-03-04T11:14:38;9.50;;;6.07;;
12623;SDS011;6377;42.836;23.998;2023-03-04T11:17:20;23.40;;;12.60;;
12623;SDS011;6377;42.836;23.998;2023-03-04T11:19:51;16.70;;;8.23;;
12623;SDS011;6377;42.836;23.998;2023-03-04T11:22:22;11.17;;;7.30;;
12623;SDS011;6377;42.836;23.998;2023-03-04T11:24:56;12.67;;;7.83;;
12623;SDS011;6377;42.836;23.998;2023-03-04T11:27:35;12.80;;;7.77;;
12623;SDS011;6377;42.836;23.998;2023-03-04T11:33:03;18.97;;;11.43;;
12623;SDS011;6377;42.836;23.998;2023-03-04T11:35:41;9.90;;;7.13;;
12623;SDS011;6377;42.836;23.998;2023-03-04T11:38:15;15.63;;;8.40;;
12623;SDS011;6377;42.836;23.998;2023-03-04T11:40:46;12.93;;;7.10;;
12623;SDS011;6377;42.836;23.998;2023-03-04T11:43:18;12.33;;;8.40;;
12623;SDS011;6377;42.836;23.998;2023-03-04T11:46:00;13.33;;;7.57;;
12623;SDS011;6377;42.836;23.998;2023-03-04T11:48:44;10.50;;;5.13;;
12623;SDS011;6377;42.836;23.998;2023-03-04T11:51:20;8.30;;;5.70;;
12623;SDS011;6377;42.836;23.998;2023-03-04T11:54:00;7.47;;;5.10;;
12623;SDS011;6377;42.836;23.998;2023-03-04T11:56:44;13.37;;;8.03;;
12623;SDS011;6377;42.836;23.998;2023-03-04T12:02:27;11.50;;;6.40;;
12623;SDS011;6377;42.836;23.998;2023-03-04T12:05:05;15.00;;;9.20;;
12623;SDS011;6377;42.836;23.998;2023-03-04T12:11:00;11.13;;;4.90;;
12623;SDS011;6377;42.836;23.998;2023-03-04T12:16:41;11.53;;;8.47;;
12623;SDS011;6377;42.836;23.998;2023-03-04T12:19:25;11.63;;;7.20;;
12623;SDS011;6377;42.836;23.998;2023-03-04T12:28:02;12.03;;;6.70;;
12623;SDS011;6377;42.836;23.998;2023-03-04T12:31:01;7.33;;;5.20;;
12623;SDS011;6377;42.836;23.998;2023-03-04T12:33:38;5.87;;;4.63;;
12623;SDS011;6377;42.836;23.998;2023-03-04T12:36:16;7.50;;;5.83;;
12623;SDS011;6377;42.836;23.998;2023-03-04T12:38:58;6.97;;;5.10;;
12623;SDS011;6377;42.836;23.998;2023-03-04T12:41:29;8.37;;;5.10;;
12623;SDS011;6377;42.836;23.998;2023-03-04T12:44:08;6.67;;;4.90;;
12623;SDS011;6377;42.836;23.998;2023-03-04T12:46:54;10.10;;;6.53;;
12623;SDS011;6377;42.836;23.998;2023-03-04T12:49:39;10.30;;;5.83;;
12623;SDS011;6377;42.836;23.998;2023-03-04T12:52:13;7.17;;;5.43;;
12623;SDS011;6377;42.836;23.998;2023-03-04T12:54:48;6.93;;;5.40;;
12623;SDS011;6377;42.836;23.998;2023-03-04T12:57:22;9.40;;;5.57;;
12623;SDS011;6377;42.836;23.998;2023-03-04T12:59:51;41.00;;;21.33;;
12623;SDS011;6377;42.836;23.998;2023-03-04T13:05:21;9.33;;;5.97;;
12623;SDS011;6377;42.836;23.998;2023-03-04T13:08:00;8.97;;;5.20;;
12623;SDS011;6377;42.836;23.998;2023-03-04T13:10:33;11.43;;;7.87;;
12623;SDS011;6377;42.836;23.998;2023-03-04T13:13:01;21.63;;;13.67;;
12623;SDS011;6377;42.836;23.998;2023-03-04T13:15:31;15.33;;;12.17;;
12623;SDS011;6377;42.836;23.998;2023-03-04T13:18:02;11.63;;;7.87;;
12623;SDS011;6377;42.836;23.998;2023-03-04T13:21:06;12.33;;;8.33;;
12623;SDS011;6377;42.836;23.998;2023-03-04T13:23:45;15.00;;;9.00;;
12623;SDS011;6377;42.836;23.998;2023-03-04T13:26:15;9.53;;;6.60;;
12623;SDS011;6377;42.836;23.998;2023-03-04T13:28:45;8.93;;;6.17;;
12623;SDS011;6377;42.836;23.998;2023-03-04T13:31:21;11.17;;;7.47;;
12623;SDS011;6377;42.836;23.998;2023-03-04T13:33:57;13.17;;;7.90;;
12623;SDS011;6377;42.836;23.998;2023-03-04T13:36:30;10.90;;;7.87;;
12623;SDS011;6377;42.836;23.998;2023-03-04T13:39:32;13.43;;;8.87;;
12623;SDS011;6377;42.836;23.998;2023-03-04T13:42:00;10.53;;;7.47;;
12623;SDS011;6377;42.836;23.998;2023-03-04T13:47:43;17.90;;;11.20;;
12623;SDS011;6377;42.836;23.998;2023-03-04T13:53:21;9.83;;;6.80;;
12623;SDS011;6377;42.836;23.998;2023-03-04T13:56:08;9.40;;;6.20;;
12623;SDS011;6377;42.836;23.998;2023-03-04T13:58:52;10.73;;;6.60;;
12623;SDS011;6377;42.836;23.998;2023-03-04T14:01:50;19.73;;;10.53;;
12623;SDS011;6377;42.836;23.998;2023-03-04T14:04:22;18.97;;;12.37;;
12623;SDS011;6377;42.836;23.998;2023-03-04T14:06:55;9.83;;;8.30;;
12623;SDS011;6377;42.836;23.998;2023-03-04T14:09:24;13.53;;;7.37;;
12623;SDS011;6377;42.836;23.998;2023-03-04T14:11:53;16.77;;;8.47;;
12623;SDS011;6377;42.836;23.998;2023-03-04T14:14:23;20.80;;;13.13;;
12623;SDS011;6377;42.836;23.998;2023-03-04T14:16:53;17.23;;;9.40;;
12623;SDS011;6377;42.836;23.998;2023-03-04T14:19:24;17.43;;;13.60;;
12623;SDS011;6377;42.836;23.998;2023-03-04T14:21:54;100.83;;;68.97;;
12623;SDS011;6377;42.836;23.998;2023-03-04T14:24:22;19.57;;;13.60;;
12623;SDS011;6377;42.836;23.998;2023-03-04T14:26:57;9.47;;;6.03;;
12623;SDS011;6377;42.836;23.998;2023-03-04T14:29:32;12.10;;;9.60;;
12623;SDS011;6377;42.836;23.998;2023-03-04T14:32:00;12.10;;;8.43;;
12623;SDS011;6377;42.836;23.998;2023-03-04T14:34:30;27.37;;;19.37;;
12623;SDS011;6377;42.836;23.998;2023-03-04T14:37:01;18.13;;;13.07;;
12623;SDS011;6377;42.836;23.998;2023-03-04T14:39:30;20.67;;;15.87;;
12623;SDS011;6377;42.836;23.998;2023-03-04T14:42:02;22.27;;;12.80;;
12623;SDS011;6377;42.836;23.998;2023-03-04T14:44:35;62.63;;;33.07;;
12623;SDS011;6377;42.836;23.998;2023-03-04T14:47:07;227.83;;;84.33;;
12623;SDS011;6377;42.836;23.998;2023-03-04T14:49:39;123.43;;;41.90;;
12623;SDS011;6377;42.836;23.998;2023-03-04T14:54:59;20.20;;;13.63;;
12623;SDS011;6377;42.836;23.998;2023-03-04T14:57:28;21.60;;;13.77;;
12623;SDS011;6377;42.836;23.998;2023-03-04T15:00:12;35.53;;;25.93;;
12623;SDS011;6377;42.836;23.998;2023-03-04T15:02:41;26.50;;;16.97;;
12623;SDS011;6377;42.836;23.998;2023-03-04T15:05:10;19.57;;;13.40;;
12623;SDS011;6377;42.836;23.998;2023-03-04T15:07:44;25.40;;;18.63;;
12623;SDS011;6377;42.836;23.998;2023-03-04T15:10:20;25.10;;;19.93;;
12623;SDS011;6377;42.836;23.998;2023-03-04T15:12:52;25.23;;;15.97;;
12623;SDS011;6377;42.836;23.998;2023-03-04T15:20:58;30.33;;;20.70;;